sensor_id;sensor_type;location;lat;lon;timestamp;P1;durP1;ratioP1;P2;durP2;ratioP2
29202;SDS011;16245;51.170;4.884;2022-09-01T00:02:24;3.15;;;1.40;;
29202;SDS011;16245;51.170;4.884;2022-09-01T00:04:52;3.10;;;1.33;;
29202;SDS011;16245;51.170;4.884;2022-09-01T00:07:22;2.95;;;1.50;;
29202;SDS011;16245;51.170;4.884;2022-09-01T00:09:49;3.80;;;1.73;;
29202;SDS011;16245;51.170;4.884;2022-09-01T00:12:15;5.95;;;1.40;;
29202;SDS011;16245;51.170;4.884;2022-09-01T00:14:41;8.40;;;2.38;;
29202;SDS011;16245;51.170;4.884;2022-09-01T00:17:08;2.08;;;1.52;;
29202;SDS011;16245;51.170;4.884;2022-09-01T00:19:35;2.05;;;1.48;;
29202;SDS011;16245;51.170;4.884;2022-09-01T00:22:02;2.35;;;1.70;;
29202;SDS011;16245;51.170;4.884;2022-09-01T00:24:28;1.73;;;1.30;;
29202;SDS011;16245;51.170;4.884;2022-09-01T00:26:53;2.75;;;1.77;;
29202;SDS011;16245;51.170;4.884;2022-09-01T00:29:20;1.65;;;1.55;;
29202;SDS011;16245;51.170;4.884;2022-09-01T00:31:46;4.40;;;1.70;;
29202;SDS011;16245;51.170;4.884;2022-09-01T00:34:12;2.38;;;1.60;;
29202;SDS011;16245;51.170;4.884;2022-09-01T00:36:38;4.13;;;1.48;;
29202;SDS011;16245;51.170;4.884;2022-09-01T00:39:04;4.82;;;1.70;;
29202;SDS011;16245;51.170;4.884;2022-09-01T00:41:31;8.90;;;1.88;;
29202;SDS011;16245;51.170;4.884;2022-09-01T00:44:04;3.10;;;1.33;;
29202;SDS011;16245;51.170;4.884;2022-09-01T00:46:34;4.03;;;1.63;;
29202;SDS011;16245;51.170;4.884;2022-09-01T00:51:29;3.30;;;1.40;;
29202;SDS011;16245;51.170;4.884;2022-09-01T00:53:57;5.85;;;1.70;;
29202;SDS011;16245;51.170;4.884;2022-09-01T00:56:24;2.75;;;1.35;;
29202;SDS011;16245;51.170;4.884;2022-09-01T00:58:50;2.88;;;1.50;;
29202;SDS011;16245;51.170;4.884;2022-09-01T01:01:17;3.15;;;1.70;;
29202;SDS011;16245;51.170;4.884;2022-09-01T01:03:43;3.45;;;1.50;;
29202;SDS011;16245;51.170;4.884;2022-09-01T01:06:11;1.38;;;1.27;;
29202;SDS011;16245;51.170;4.884;2022-09-01T01:08:40;1.88;;;1.48;;
29202;SDS011;16245;51.170;4.884;2022-09-01T01:11:13;2.63;;;1.30;;
29202;SDS011;16245;51.170;4.884;2022-09-01T01:13:50;1.48;;;1.38;;
29202;SDS011;16245;51.170;4.884;2022-09-01T01:16:18;2.47;;;1.40;;
29202;SDS011;16245;51.170;4.884;2022-09-01T01:18:45;2.70;;;1.50;;
29202;SDS011;16245;51.170;4.884;2022-09-01T01:24:28;1.50;;;1.38;;
29202;SDS011;16245;51.170;4.884;2022-09-01T01:26:56;2.50;;;1.52;;
29202;SDS011;16245;51.170;4.884;2022-09-01T01:29:24;4.15;;;1.52;;
29202;SDS011;16245;51.170;4.884;2022-09-01T01:31:53;2.00;;;1.50;;
29202;SDS011;16245;51.170;4.884;2022-09-01T01:34:20;2.25;;;1.48;;
29202;SDS011;16245;51.170;4.884;2022-09-01T01:36:47;3.03;;;1.52;;
29202;SDS011;16245;51.170;4.884;2022-09-01T01:39:16;2.80;;;1.30;;
29202;SDS011;16245;51.170;4.884;2022-09-01T01:41:45;2.65;;;1.80;;
29202;SDS011;16245;51.170;4.884;2022-09-01T01:44:13;3.55;;;1.15;;
29202;SDS011;16245;51.170;4.884;2022-09-01T01:46:46;2.65;;;1.63;;
29202;SDS011;16245;51.170;4.884;2022-09-01T01:49:14;2.75;;;1.67;;
29202;SDS011;16245;51.170;4.884;2022-09-01T01:51:45;1.42;;;1.20;;
29202;SDS011;16245;51.170;4.884;2022-09-01T01:54:17;4.13;;;1.70;;
29202;SDS011;16245;51.170;4.884;2022-09-01T01:56:43;2.13;;;1.63;;
29202;SDS011;16245;51.170;4.884;2022-09-01T01:59:09;1.75;;;1.58;;
29202;SDS011;16245;51.170;4.884;2022-09-01T02:01:40;5.30;;;1.60;;
29202;SDS011;16245;51.170;4.884;2022-09-01T02:04:09;3.03;;;1.55;;
29202;SDS011;16245;51.170;4.884;2022-09-01T02:06:35;2.05;;;1.50;;
29202;SDS011;16245;51.170;4.884;2022-09-01T02:09:06;1.73;;;1.27;;
29202;SDS011;16245;51.170;4.884;2022-09-01T02:11:33;2.70;;;1.60;;
29202;SDS011;16245;51.170;4.884;2022-09-01T02:14:02;1.80;;;1.35;;
29202;SDS011;16245;51.170;4.884;2022-09-01T02:16:29;2.35;;;1.60;;
29202;SDS011;16245;51.170;4.884;2022-09-01T02:18:57;1.67;;;1.20;;
29202;SDS011;16245;51.170;4.884;2022-09-01T02:21:24;4.28;;;1.58;;
29202;SDS011;16245;51.170;4.884;2022-09-01T02:23:52;4.13;;;1.45;;
29202;SDS011;16245;51.170;4.884;2022-09-01T02:26:30;1.75;;;1.38;;
29202;SDS011;16245;51.170;4.884;2022-09-01T02:28:58;3.08;;;1.50;;
29202;SDS011;16245;51.170;4.884;2022-09-01T02:31:29;2.00;;;1.52;;
29202;SDS011;16245;51.170;4.884;2022-09-01T02:33:59;3.35;;;1.60;;
29202;SDS011;16245;51.170;4.884;2022-09-01T02:36:25;2.70;;;1.70;;
29202;SDS011;16245;51.170;4.884;2022-09-01T02:38:51;2.58;;;1.33;;
29202;SDS011;16245;51.170;4.884;2022-09-01T02:41:18;1.95;;;1.50;;
29202;SDS011;16245;51.170;4.884;2022-09-01T02:43:48;2.47;;;1.80;;
29202;SDS011;16245;51.170;4.884;2022-09-01T02:46:14;4.72;;;1.50;;
29202;SDS011;16245;51.170;4.884;2022-09-01T02:48:41;1.88;;;1.30;;
29202;SDS011;16245;51.170;4.884;2022-09-01T02:51:14;2.80;;;1.42;;
29202;SDS011;16245;51.170;4.884;2022-09-01T02:53:42;2.35;;;1.45;;
29202;SDS011;16245;51.170;4.884;2022-09-01T02:56:10;3.22;;;1.60;;
29202;SDS011;16245;51.170;4.884;2022-09-01T02:58:38;1.60;;;1.42;;
29202;SDS011;16245;51.170;4.884;2022-09-01T03:01:14;2.63;;;1.55;;
29202;SDS011;16245;51.170;4.884;2022-09-01T03:03:49;3.30;;;1.52;;
29202;SDS011;16245;51.170;4.884;2022-09-01T03:06:17;3.80;;;1.48;;
29202;SDS011;16245;51.170;4.884;2022-09-01T03:08:45;3.92;;;1.60;;
29202;SDS011;16245;51.170;4.884;2022-09-01T03:11:11;3.33;;;1.50;;
29202;SDS011;16245;51.170;4.884;2022-09-01T03:13:37;4.80;;;1.80;;
29202;SDS011;16245;51.170;4.884;2022-09-01T03:16:07;3.83;;;2.20;;
29202;SDS011;16245;51.170;4.884;2022-09-01T03:18:34;3.08;;;1.88;;
29202;SDS011;16245;51.170;4.884;2022-09-01T03:21:00;3.00;;;1.80;;
29202;SDS011;16245;51.170;4.884;2022-09-01T03:23:27;2.72;;;1.85;;
29202;SDS011;16245;51.170;4.884;2022-09-01T03:25:55;2.85;;;1.65;;
29202;SDS011;16245;51.170;4.884;2022-09-01T03:28:21;2.58;;;1.67;;
29202;SDS011;16245;51.170;4.884;2022-09-01T03:30:52;3.58;;;2.42;;
29202;SDS011;16245;51.170;4.884;2022-09-01T03:33:19;3.28;;;1.80;;
29202;SDS011;16245;51.170;4.884;2022-09-01T03:35:46;3.92;;;1.67;;
29202;SDS011;16245;51.170;4.884;2022-09-01T03:38:12;2.78;;;2.00;;
29202;SDS011;16245;51.170;4.884;2022-09-01T03:40:45;6.07;;;1.98;;
29202;SDS011;16245;51.170;4.884;2022-09-01T03:43:11;3.35;;;2.13;;
29202;SDS011;16245;51.170;4.884;2022-09-01T03:45:38;4.72;;;2.30;;
29202;SDS011;16245;51.170;4.884;2022-09-01T03:48:06;3.67;;;2.30;;
29202;SDS011;16245;51.170;4.884;2022-09-01T03:50:37;2.95;;;2.35;;
29202;SDS011;16245;51.170;4.884;2022-09-01T03:53:18;3.83;;;2.22;;
29202;SDS011;16245;51.170;4.884;2022-09-01T03:55:47;4.85;;;2.30;;
29202;SDS011;16245;51.170;4.884;2022-09-01T03:58:14;4.57;;;2.78;;
29202;SDS011;16245;51.170;4.884;2022-09-01T04:00:45;3.50;;;2.80;;
29202;SDS011;16245;51.170;4.884;2022-09-01T04:03:14;4.95;;;2.53;;
29202;SDS011;16245;51.170;4.884;2022-09-01T04:05:46;4.65;;;2.58;;
29202;SDS011;16245;51.170;4.884;2022-09-01T04:08:15;5.57;;;2.95;;
29202;SDS011;16245;51.170;4.884;2022-09-01T04:13:18;8.48;;;3.58;;
29202;SDS011;16245;51.170;4.884;2022-09-01T04:15:50;6.32;;;3.60;;
29202;SDS011;16245;51.170;4.884;2022-09-01T04:18:16;5.70;;;3.70;;
29202;SDS011;16245;51.170;4.884;2022-09-01T04:20:47;6.00;;;3.63;;
29202;SDS011;16245;51.170;4.884;2022-09-01T04:23:28;9.15;;;3.45;;
29202;SDS011;16245;51.170;4.884;2022-09-01T04:25:57;6.60;;;3.42;;
29202;SDS011;16245;51.170;4.884;2022-09-01T04:28:32;5.78;;;3.53;;
29202;SDS011;16245;51.170;4.884;2022-09-01T04:31:02;10.18;;;4.18;;
29202;SDS011;16245;51.170;4.884;2022-09-01T04:33:33;6.93;;;3.75;;
29202;SDS011;16245;51.170;4.884;2022-09-01T04:36:04;7.32;;;4.10;;
29202;SDS011;16245;51.170;4.884;2022-09-01T04:38:31;6.63;;;4.57;;
29202;SDS011;16245;51.170;4.884;2022-09-01T04:41:05;8.38;;;4.25;;
29202;SDS011;16245;51.170;4.884;2022-09-01T04:43:33;8.93;;;5.00;;
29202;SDS011;16245;51.170;4.884;2022-09-01T04:45:59;7.90;;;4.43;;
29202;SDS011;16245;51.170;4.884;2022-09-01T04:48:25;6.88;;;4.60;;
29202;SDS011;16245;51.170;4.884;2022-09-01T04:50:51;8.57;;;4.95;;
29202;SDS011;16245;51.170;4.884;2022-09-01T04:53:17;8.63;;;4.75;;
29202;SDS011;16245;51.170;4.884;2022-09-01T04:55:43;9.57;;;5.28;;
29202;SDS011;16245;51.170;4.884;2022-09-01T04:58:12;10.70;;;6.22;;
29202;SDS011;16245;51.170;4.884;2022-09-01T05:00:41;10.75;;;6.03;;
29202;SDS011;16245;51.170;4.884;2022-09-01T05:03:09;10.25;;;5.80;;
29202;SDS011;16245;51.170;4.884;2022-09-01T05:05:39;10.73;;;5.97;;
29202;SDS011;16245;51.170;4.884;2022-09-01T05:08:17;10.40;;;5.78;;
29202;SDS011;16245;51.170;4.884;2022-09-01T05:10:45;8.45;;;6.07;;
29202;SDS011;16245;51.170;4.884;2022-09-01T05:13:18;10.73;;;6.72;;
29202;SDS011;16245;51.170;4.884;2022-09-01T05:15:47;13.82;;;7.32;;
29202;SDS011;16245;51.170;4.884;2022-09-01T05:18:24;16.20;;;6.93;;
29202;SDS011;16245;51.170;4.884;2022-09-01T05:20:52;13.82;;;6.93;;
29202;SDS011;16245;51.170;4.884;2022-09-01T05:23:18;9.52;;;6.53;;
29202;SDS011;16245;51.170;4.884;2022-09-01T05:25:45;10.90;;;6.53;;
29202;SDS011;16245;51.170;4.884;2022-09-01T05:28:13;13.60;;;7.13;;
29202;SDS011;16245;51.170;4.884;2022-09-01T05:30:42;15.30;;;7.60;;
29202;SDS011;16245;51.170;4.884;2022-09-01T05:33:09;11.43;;;7.47;;
29202;SDS011;16245;51.170;4.884;2022-09-01T05:35:37;14.13;;;7.45;;
29202;SDS011;16245;51.170;4.884;2022-09-01T05:38:05;13.90;;;7.38;;
29202;SDS011;16245;51.170;4.884;2022-09-01T05:40:37;13.15;;;8.13;;
29202;SDS011;16245;51.170;4.884;2022-09-01T05:43:09;17.88;;;8.25;;
29202;SDS011;16245;51.170;4.884;2022-09-01T05:45:41;15.82;;;8.30;;
29202;SDS011;16245;51.170;4.884;2022-09-01T05:48:09;13.70;;;8.40;;
29202;SDS011;16245;51.170;4.884;2022-09-01T05:50:40;16.85;;;9.32;;
29202;SDS011;16245;51.170;4.884;2022-09-01T05:53:09;13.68;;;9.13;;
29202;SDS011;16245;51.170;4.884;2022-09-01T05:55:40;16.50;;;9.95;;
29202;SDS011;16245;51.170;4.884;2022-09-01T05:58:08;14.15;;;8.55;;
29202;SDS011;16245;51.170;4.884;2022-09-01T06:00:38;24.70;;;9.98;;
29202;SDS011;16245;51.170;4.884;2022-09-01T06:03:05;19.77;;;10.82;;
29202;SDS011;16245;51.170;4.884;2022-09-01T06:05:33;20.05;;;9.63;;
29202;SDS011;16245;51.170;4.884;2022-09-01T06:08:00;19.30;;;10.77;;
29202;SDS011;16245;51.170;4.884;2022-09-01T06:10:29;19.98;;;11.77;;
29202;SDS011;16245;51.170;4.884;2022-09-01T06:12:56;18.38;;;9.95;;
29202;SDS011;16245;51.170;4.884;2022-09-01T06:15:26;21.40;;;12.20;;
29202;SDS011;16245;51.170;4.884;2022-09-01T06:17:56;18.90;;;11.30;;
29202;SDS011;16245;51.170;4.884;2022-09-01T06:20:23;20.00;;;11.77;;
29202;SDS011;16245;51.170;4.884;2022-09-01T06:22:49;24.92;;;11.93;;
29202;SDS011;16245;51.170;4.884;2022-09-01T06:25:17;18.60;;;11.25;;
29202;SDS011;16245;51.170;4.884;2022-09-01T06:27:44;20.40;;;12.50;;
29202;SDS011;16245;51.170;4.884;2022-09-01T06:30:11;25.50;;;12.30;;
29202;SDS011;16245;51.170;4.884;2022-09-01T06:32:41;21.98;;;11.77;;
29202;SDS011;16245;51.170;4.884;2022-09-01T06:35:08;24.63;;;14.18;;
29202;SDS011;16245;51.170;4.884;2022-09-01T06:37:39;23.88;;;12.80;;
29202;SDS011;16245;51.170;4.884;2022-09-01T06:40:08;24.20;;;13.00;;
29202;SDS011;16245;51.170;4.884;2022-09-01T06:42:41;24.90;;;12.95;;
29202;SDS011;16245;51.170;4.884;2022-09-01T06:45:15;27.23;;;13.35;;
29202;SDS011;16245;51.170;4.884;2022-09-01T06:47:42;23.50;;;13.52;;
29202;SDS011;16245;51.170;4.884;2022-09-01T06:50:09;25.95;;;13.75;;
29202;SDS011;16245;51.170;4.884;2022-09-01T06:52:36;25.65;;;13.30;;
29202;SDS011;16245;51.170;4.884;2022-09-01T06:55:04;24.85;;;14.13;;
29202;SDS011;16245;51.170;4.884;2022-09-01T06:57:30;26.90;;;13.98;;
29202;SDS011;16245;51.170;4.884;2022-09-01T06:59:56;28.17;;;13.25;;
29202;SDS011;16245;51.170;4.884;2022-09-01T07:02:21;27.63;;;14.25;;
29202;SDS011;16245;51.170;4.884;2022-09-01T07:04:48;25.70;;;14.48;;
29202;SDS011;16245;51.170;4.884;2022-09-01T07:07:15;23.73;;;13.40;;
29202;SDS011;16245;51.170;4.884;2022-09-01T07:09:41;28.13;;;14.77;;
29202;SDS011;16245;51.170;4.884;2022-09-01T07:12:07;31.83;;;14.30;;
29202;SDS011;16245;51.170;4.884;2022-09-01T07:14:32;24.08;;;13.95;;
29202;SDS011;16245;51.170;4.884;2022-09-01T07:16:59;26.80;;;14.05;;
29202;SDS011;16245;51.170;4.884;2022-09-01T07:19:24;27.15;;;13.95;;
29202;SDS011;16245;51.170;4.884;2022-09-01T07:21:51;23.65;;;13.25;;
29202;SDS011;16245;51.170;4.884;2022-09-01T07:24:17;20.15;;;12.30;;
29202;SDS011;16245;51.170;4.884;2022-09-01T07:26:44;25.70;;;12.77;;
29202;SDS011;16245;51.170;4.884;2022-09-01T07:29:13;26.77;;;13.52;;
29202;SDS011;16245;51.170;4.884;2022-09-01T07:31:40;19.50;;;12.20;;
29202;SDS011;16245;51.170;4.884;2022-09-01T07:34:08;22.90;;;11.35;;
29202;SDS011;16245;51.170;4.884;2022-09-01T07:36:37;16.20;;;10.27;;
29202;SDS011;16245;51.170;4.884;2022-09-01T07:39:03;17.27;;;9.60;;
29202;SDS011;16245;51.170;4.884;2022-09-01T07:41:30;19.00;;;9.27;;
29202;SDS011;16245;51.170;4.884;2022-09-01T07:43:57;17.42;;;8.43;;
29202;SDS011;16245;51.170;4.884;2022-09-01T07:46:24;16.05;;;8.48;;
29202;SDS011;16245;51.170;4.884;2022-09-01T07:48:53;17.60;;;8.18;;
29202;SDS011;16245;51.170;4.884;2022-09-01T07:51:20;14.35;;;8.85;;
29202;SDS011;16245;51.170;4.884;2022-09-01T07:53:47;13.68;;;7.65;;
29202;SDS011;16245;51.170;4.884;2022-09-01T07:56:15;10.75;;;7.20;;
29202;SDS011;16245;51.170;4.884;2022-09-01T07:58:43;9.82;;;6.30;;
29202;SDS011;16245;51.170;4.884;2022-09-01T08:01:10;8.65;;;5.10;;
29202;SDS011;16245;51.170;4.884;2022-09-01T08:03:38;13.63;;;5.32;;
29202;SDS011;16245;51.170;4.884;2022-09-01T08:06:05;7.05;;;5.20;;
29202;SDS011;16245;51.170;4.884;2022-09-01T08:08:33;8.48;;;4.82;;
29202;SDS011;16245;51.170;4.884;2022-09-01T08:11:00;7.53;;;4.90;;
29202;SDS011;16245;51.170;4.884;2022-09-01T08:13:26;8.27;;;4.50;;
29202;SDS011;16245;51.170;4.884;2022-09-01T08:15:52;8.95;;;4.43;;
29202;SDS011;16245;51.170;4.884;2022-09-01T08:18:18;6.57;;;3.88;;
29202;SDS011;16245;51.170;4.884;2022-09-01T08:20:44;8.98;;;4.03;;
29202;SDS011;16245;51.170;4.884;2022-09-01T08:23:15;7.43;;;3.67;;
29202;SDS011;16245;51.170;4.884;2022-09-01T08:25:43;4.13;;;3.28;;
29202;SDS011;16245;51.170;4.884;2022-09-01T08:28:10;7.05;;;3.03;;
29202;SDS011;16245;51.170;4.884;2022-09-01T08:30:37;5.15;;;3.03;;
29202;SDS011;16245;51.170;4.884;2022-09-01T08:33:05;5.43;;;2.80;;
29202;SDS011;16245;51.170;4.884;2022-09-01T08:35:31;7.28;;;3.17;;
29202;SDS011;16245;51.170;4.884;2022-09-01T08:37:57;3.58;;;2.63;;
29202;SDS011;16245;51.170;4.884;2022-09-01T08:40:23;5.60;;;2.55;;
29202;SDS011;16245;51.170;4.884;2022-09-01T08:45:41;5.18;;;2.67;;
29202;SDS011;16245;51.170;4.884;2022-09-01T08:48:25;6.05;;;2.80;;
29202;SDS011;16245;51.170;4.884;2022-09-01T08:51:01;3.65;;;2.08;;
29202;SDS011;16245;51.170;4.884;2022-09-01T08:53:56;7.38;;;2.20;;
29202;SDS011;16245;51.170;4.884;2022-09-01T08:56:42;2.70;;;2.22;;
29202;SDS011;16245;51.170;4.884;2022-09-01T08:59:09;2.22;;;1.85;;
29202;SDS011;16245;51.170;4.884;2022-09-01T09:01:42;5.25;;;2.20;;
29202;SDS011;16245;51.170;4.884;2022-09-01T09:06:59;3.42;;;2.25;;
29202;SDS011;16245;51.170;4.884;2022-09-01T09:09:57;5.35;;;2.00;;
29202;SDS011;16245;51.170;4.884;2022-09-01T09:12:35;2.45;;;1.92;;
29202;SDS011;16245;51.170;4.884;2022-09-01T09:15:37;6.47;;;1.80;;
29202;SDS011;16245;51.170;4.884;2022-09-01T09:20:48;2.50;;;1.98;;
29202;SDS011;16245;51.170;4.884;2022-09-01T09:23:20;2.15;;;1.50;;
29202;SDS011;16245;51.170;4.884;2022-09-01T09:25:51;5.05;;;2.20;;
29202;SDS011;16245;51.170;4.884;2022-09-01T09:28:16;5.57;;;2.17;;
29202;SDS011;16245;51.170;4.884;2022-09-01T09:30:42;2.30;;;1.73;;
29202;SDS011;16245;51.170;4.884;2022-09-01T09:33:08;9.50;;;1.90;;
29202;SDS011;16245;51.170;4.884;2022-09-01T09:40:56;1.83;;;1.33;;
29202;SDS011;16245;51.170;4.884;2022-09-01T09:43:36;1.73;;;1.38;;
29202;SDS011;16245;51.170;4.884;2022-09-01T09:46:25;2.13;;;1.63;;
29202;SDS011;16245;51.170;4.884;2022-09-01T09:52:17;1.92;;;1.30;;
29202;SDS011;16245;51.170;4.884;2022-09-01T09:55:03;4.22;;;1.50;;
29202;SDS011;16245;51.170;4.884;2022-09-01T09:57:42;3.78;;;1.25;;
29202;SDS011;16245;51.170;4.884;2022-09-01T10:00:23;4.40;;;1.60;;
29202;SDS011;16245;51.170;4.884;2022-09-01T10:03:02;3.08;;;1.35;;
29202;SDS011;16245;51.170;4.884;2022-09-01T10:08:07;3.78;;;1.58;;
29202;SDS011;16245;51.170;4.884;2022-09-01T10:11:02;5.03;;;1.60;;
29202;SDS011;16245;51.170;4.884;2022-09-01T10:13:29;3.35;;;1.30;;
29202;SDS011;16245;51.170;4.884;2022-09-01T10:16:00;7.88;;;1.98;;
29202;SDS011;16245;51.170;4.884;2022-09-01T10:18:35;2.55;;;1.63;;
29202;SDS011;16245;51.170;4.884;2022-09-01T10:21:09;3.78;;;1.52;;
29202;SDS011;16245;51.170;4.884;2022-09-01T10:23:39;4.13;;;1.60;;
29202;SDS011;16245;51.170;4.884;2022-09-01T10:26:25;4.45;;;1.58;;
29202;SDS011;16245;51.170;4.884;2022-09-01T10:29:07;4.88;;;1.77;;
29202;SDS011;16245;51.170;4.884;2022-09-01T10:31:34;1.88;;;1.48;;
29202;SDS011;16245;51.170;4.884;2022-09-01T10:34:01;3.33;;;1.20;;
29202;SDS011;16245;51.170;4.884;2022-09-01T10:36:29;1.70;;;1.60;;
29202;SDS011;16245;51.170;4.884;2022-09-01T10:38:56;3.03;;;1.30;;
29202;SDS011;16245;51.170;4.884;2022-09-01T10:44:10;4.55;;;1.80;;
29202;SDS011;16245;51.170;4.884;2022-09-01T10:46:43;3.05;;;1.52;;
29202;SDS011;16245;51.170;4.884;2022-09-01T10:49:17;2.63;;;1.48;;
29202;SDS011;16245;51.170;4.884;2022-09-01T10:51:53;2.50;;;1.55;;
29202;SDS011;16245;51.170;4.884;2022-09-01T11:00:18;4.68;;;1.88;;
29202;SDS011;16245;51.170;4.884;2022-09-01T11:10:54;2.20;;;1.60;;
29202;SDS011;16245;51.170;4.884;2022-09-01T11:13:30;3.03;;;1.95;;
29202;SDS011;16245;51.170;4.884;2022-09-01T11:27:06;5.03;;;2.05;;
29202;SDS011;16245;51.170;4.884;2022-09-01T11:32:23;4.25;;;2.30;;
29202;SDS011;16245;51.170;4.884;2022-09-01T11:34:55;4.47;;;1.90;;
29202;SDS011;16245;51.170;4.884;2022-09-01T11:37:22;12.00;;;2.50;;
29202;SDS011;16245;51.170;4.884;2022-09-01T11:39:53;2.35;;;1.60;;
29202;SDS011;16245;51.170;4.884;2022-09-01T11:47:54;2.35;;;1.67;;
29202;SDS011;16245;51.170;4.884;2022-09-01T11:52:56;3.97;;;1.65;;
29202;SDS011;16245;51.170;4.884;2022-09-01T11:55:30;2.55;;;2.05;;
29202;SDS011;16245;51.170;4.884;2022-09-01T11:58:11;2.85;;;2.10;;
29202;SDS011;16245;51.170;4.884;2022-09-01T12:00:39;2.88;;;1.52;;
29202;SDS011;16245;51.170;4.884;2022-09-01T12:03:22;3.60;;;1.95;;
29202;SDS011;16245;51.170;4.884;2022-09-01T12:05:54;3.75;;;1.73;;
29202;SDS011;16245;51.170;4.884;2022-09-01T12:08:23;2.38;;;1.42;;
29202;SDS011;16245;51.170;4.884;2022-09-01T12:11:01;2.13;;;1.60;;
29202;SDS011;16245;51.170;4.884;2022-09-01T12:13:31;2.58;;;1.65;;
29202;SDS011;16245;51.170;4.884;2022-09-01T12:15:59;1.77;;;1.58;;
29202;SDS011;16245;51.170;4.884;2022-09-01T12:18:27;1.73;;;1.48;;
29202;SDS011;16245;51.170;4.884;2022-09-01T12:21:00;4.75;;;1.90;;
29202;SDS011;16245;51.170;4.884;2022-09-01T12:25:59;3.70;;;2.17;;
29202;SDS011;16245;51.170;4.884;2022-09-01T12:28:28;2.13;;;1.70;;
29202;SDS011;16245;51.170;4.884;2022-09-01T12:30:55;1.98;;;1.60;;
29202;SDS011;16245;51.170;4.884;2022-09-01T12:33:23;1.70;;;1.60;;
29202;SDS011;16245;51.170;4.884;2022-09-01T12:35:50;1.83;;;1.60;;
29202;SDS011;16245;51.170;4.884;2022-09-01T12:40:46;4.00;;;1.90;;
29202;SDS011;16245;51.170;4.884;2022-09-01T12:43:36;3.38;;;1.95;;
29202;SDS011;16245;51.170;4.884;2022-09-01T12:46:04;3.15;;;2.15;;
29202;SDS011;16245;51.170;4.884;2022-09-01T12:48:35;2.17;;;1.70;;
29202;SDS011;16245;51.170;4.884;2022-09-01T12:51:18;2.08;;;1.65;;
29202;SDS011;16245;51.170;4.884;2022-09-01T12:53:54;6.15;;;1.70;;
29202;SDS011;16245;51.170;4.884;2022-09-01T12:56:32;4.22;;;1.65;;
29202;SDS011;16245;51.170;4.884;2022-09-01T12:59:41;4.57;;;1.50;;
29202;SDS011;16245;51.170;4.884;2022-09-01T13:01:50;3.35;;;1.70;;
29202;SDS011;16245;51.170;4.884;2022-09-01T13:06:45;7.47;;;1.58;;
29202;SDS011;16245;51.170;4.884;2022-09-01T13:09:11;4.30;;;1.80;;
29202;SDS011;16245;51.170;4.884;2022-09-01T13:11:36;2.75;;;1.63;;
29202;SDS011;16245;51.170;4.884;2022-09-01T13:14:02;2.97;;;1.52;;
29202;SDS011;16245;51.170;4.884;2022-09-01T13:16:28;6.35;;;2.33;;
29202;SDS011;16245;51.170;4.884;2022-09-01T13:18:54;2.15;;;1.33;;
29202;SDS011;16245;51.170;4.884;2022-09-01T13:21:19;2.40;;;1.40;;
29202;SDS011;16245;51.170;4.884;2022-09-01T13:23:46;5.05;;;1.30;;
29202;SDS011;16245;51.170;4.884;2022-09-01T13:26:12;2.42;;;1.23;;
29202;SDS011;16245;51.170;4.884;2022-09-01T13:28:37;2.40;;;1.40;;
29202;SDS011;16245;51.170;4.884;2022-09-01T13:31:04;2.97;;;1.55;;
29202;SDS011;16245;51.170;4.884;2022-09-01T13:33:30;5.43;;;1.20;;
29202;SDS011;16245;51.170;4.884;2022-09-01T13:35:57;2.95;;;1.50;;
29202;SDS011;16245;51.170;4.884;2022-09-01T13:38:22;3.00;;;1.80;;
29202;SDS011;16245;51.170;4.884;2022-09-01T13:40:48;3.15;;;1.95;;
29202;SDS011;16245;51.170;4.884;2022-09-01T13:43:16;2.65;;;1.40;;
29202;SDS011;16245;51.170;4.884;2022-09-01T13:45:43;8.88;;;1.95;;
29202;SDS011;16245;51.170;4.884;2022-09-01T13:48:10;3.10;;;1.42;;
29202;SDS011;16245;51.170;4.884;2022-09-01T13:50:36;4.20;;;1.73;;
29202;SDS011;16245;51.170;4.884;2022-09-01T13:53:03;2.33;;;1.48;;
29202;SDS011;16245;51.170;4.884;2022-09-01T13:55:31;4.20;;;1.73;;
29202;SDS011;16245;51.170;4.884;2022-09-01T13:57:59;2.50;;;1.33;;
29202;SDS011;16245;51.170;4.884;2022-09-01T14:00:28;1.42;;;1.27;;
29202;SDS011;16245;51.170;4.884;2022-09-01T14:02:58;2.35;;;1.70;;
29202;SDS011;16245;51.170;4.884;2022-09-01T14:05:26;2.83;;;1.42;;
29202;SDS011;16245;51.170;4.884;2022-09-01T14:07:54;4.40;;;1.95;;
29202;SDS011;16245;51.170;4.884;2022-09-01T14:10:20;4.05;;;1.90;;
29202;SDS011;16245;51.170;4.884;2022-09-01T14:12:47;2.53;;;1.60;;
29202;SDS011;16245;51.170;4.884;2022-09-01T14:15:13;4.47;;;1.65;;
29202;SDS011;16245;51.170;4.884;2022-09-01T14:17:41;5.03;;;1.92;;
29202;SDS011;16245;51.170;4.884;2022-09-01T14:20:09;1.50;;;1.40;;
29202;SDS011;16245;51.170;4.884;2022-09-01T14:22:37;3.17;;;1.40;;
29202;SDS011;16245;51.170;4.884;2022-09-01T14:25:07;2.28;;;1.38;;
29202;SDS011;16245;51.170;4.884;2022-09-01T14:27:34;3.03;;;1.65;;
29202;SDS011;16245;51.170;4.884;2022-09-01T14:30:00;2.70;;;1.33;;
29202;SDS011;16245;51.170;4.884;2022-09-01T14:32:26;3.15;;;1.48;;
29202;SDS011;16245;51.170;4.884;2022-09-01T14:34:53;3.28;;;1.50;;
29202;SDS011;16245;51.170;4.884;2022-09-01T14:37:20;3.10;;;1.30;;
29202;SDS011;16245;51.170;4.884;2022-09-01T14:39:52;3.28;;;1.67;;
29202;SDS011;16245;51.170;4.884;2022-09-01T14:42:19;2.92;;;1.63;;
29202;SDS011;16245;51.170;4.884;2022-09-01T14:54:51;3.90;;;1.50;;
29202;SDS011;16245;51.170;4.884;2022-09-01T14:57:17;6.22;;;1.45;;
29202;SDS011;16245;51.170;4.884;2022-09-01T14:59:42;1.80;;;1.20;;
29202;SDS011;16245;51.170;4.884;2022-09-01T15:02:08;2.60;;;1.50;;
29202;SDS011;16245;51.170;4.884;2022-09-01T15:04:35;1.88;;;1.27;;
29202;SDS011;16245;51.170;4.884;2022-09-01T15:07:01;2.55;;;1.73;;
29202;SDS011;16245;51.170;4.884;2022-09-01T15:09:30;4.03;;;1.20;;
29202;SDS011;16245;51.170;4.884;2022-09-01T15:11:56;2.58;;;1.40;;
29202;SDS011;16245;51.170;4.884;2022-09-01T15:14:22;6.90;;;1.63;;
29202;SDS011;16245;51.170;4.884;2022-09-01T15:16:47;7.80;;;1.75;;
29202;SDS011;16245;51.170;4.884;2022-09-01T15:19:13;1.52;;;1.30;;
29202;SDS011;16245;51.170;4.884;2022-09-01T15:21:40;1.88;;;1.40;;
29202;SDS011;16245;51.170;4.884;2022-09-01T15:24:07;5.55;;;1.77;;
29202;SDS011;16245;51.170;4.884;2022-09-01T15:26:34;3.38;;;1.80;;
29202;SDS011;16245;51.170;4.884;2022-09-01T15:29:02;4.32;;;1.70;;
29202;SDS011;16245;51.170;4.884;2022-09-01T15:31:28;2.95;;;1.60;;
29202;SDS011;16245;51.170;4.884;2022-09-01T15:33:57;4.50;;;1.70;;
29202;SDS011;16245;51.170;4.884;2022-09-01T15:36:24;5.18;;;1.42;;
29202;SDS011;16245;51.170;4.884;2022-09-01T15:38:52;3.38;;;1.30;;
29202;SDS011;16245;51.170;4.884;2022-09-01T15:41:19;6.22;;;1.40;;
29202;SDS011;16245;51.170;4.884;2022-09-01T15:43:47;4.22;;;1.58;;
29202;SDS011;16245;51.170;4.884;2022-09-01T15:46:13;3.03;;;1.55;;
29202;SDS011;16245;51.170;4.884;2022-09-01T15:48:40;1.70;;;1.40;;
29202;SDS011;16245;51.170;4.884;2022-09-01T15:53:59;3.83;;;1.23;;
29202;SDS011;16245;51.170;4.884;2022-09-01T15:56:27;2.50;;;1.65;;
29202;SDS011;16245;51.170;4.884;2022-09-01T15:58:55;3.35;;;1.40;;
29202;SDS011;16245;51.170;4.884;2022-09-01T16:01:22;2.05;;;1.27;;
29202;SDS011;16245;51.170;4.884;2022-09-01T16:03:48;1.63;;;1.42;;
29202;SDS011;16245;51.170;4.884;2022-09-01T16:06:14;2.97;;;1.33;;
29202;SDS011;16245;51.170;4.884;2022-09-01T16:08:40;3.33;;;1.40;;
29202;SDS011;16245;51.170;4.884;2022-09-01T16:11:06;3.65;;;1.52;;
29202;SDS011;16245;51.170;4.884;2022-09-01T16:13:34;1.52;;;1.40;;
29202;SDS011;16245;51.170;4.884;2022-09-01T16:18:47;3.38;;;1.17;;
29202;SDS011;16245;51.170;4.884;2022-09-01T16:21:32;1.88;;;1.60;;
29202;SDS011;16245;51.170;4.884;2022-09-01T16:24:09;4.15;;;1.45;;
29202;SDS011;16245;51.170;4.884;2022-09-01T16:26:36;2.80;;;1.38;;